Time,TemperatureF,DewpointF,PressureIn,WindDirection,WindDirectionDegrees,WindSpeedMPH,WindSpeedGustMPH,Humidity,HourlyPrecipIn,Conditions,Clouds,dailyrainin,SoftwareType,DateUTC
2013-09-24 10:54:00,70.7,0.0,30.02,North,0,0.0,1.0,0,0.00,,,0.00,Weather View 32 v70,2013-09-24 14:54:00,
2013-09-24 10:55:00,70.7,0.0,30.02,West,270,1.0,1.0,0,0.00,,,0.00,Weather View 32 v70,2013-09-24 14:55:00,
2013-09-24 11:00:00,71.4,0.0,30.03,West,270,0.0,4.0,0,0.00,,,0.00,Weather View 32 v70,2013-09-24 15:00:00,
2013-09-24 11:05:00,72.3,0.0,30.03,North,0,0.0,5.0,0,0.00,,,0.00,Weather View 32 v70,2013-09-24 15:05:00,
2013-09-24 11:10:00,72.5,0.0,30.04,WNW,293,0.0,5.0,0,0.00,,,0.00,Weather View 32 v70,2013-09-24 15:10:00,
2013-09-24 11:15:00,72.9,0.0,30.04,WNW,293,0.0,5.0,0,0.00,,,0.00,Weather View 32 v70,2013-09-24 15:15:00,
2013-09-24 11:20:00,72.5,0.0,30.10,WNW,293,0.0,5.0,0,0.00,,,0.00,Weather View 32 v70,2013-09-24 15:20:00,
2013-09-24 11:25:00,73.0,0.0,30.03,North,0,4.0,6.0,0,0.00,,,0.00,Weather View 32 v70,2013-09-24 15:25:00,
2013-09-24 11:30:00,73.4,0.0,30.08,NW,315,0.0,6.0,0,0.00,,,0.00,Weather View 32 v70,2013-09-24 15:30:00,
2013-09-24 11:35:00,73.0,0.0,30.03,NW,315,1.0,6.0,0,0.00,,,0.00,Weather View 32 v70,2013-09-24 15:35:00,
2013-09-24 11:40:00,73.0,0.0,30.07,West,270,0.0,6.0,0,0.00,,,0.00,Weather View 32 v70,2013-09-24 15:40:00,
2013-09-24 11:45:00,72.5,0.0,30.09,NW,315,1.0,6.0,0,0.00,,,0.00,Weather View 32 v70,2013-09-24 15:45:00,
2013-09-24 11:50:00,72.0,0.0,30.05,North,0,1.0,6.0,0,0.00,,,0.00,Weather View 32 v70,2013-09-24 15:50:00,
2013-09-24 11:55:00,73.4,0.0,30.06,West,270,0.0,7.0,0,0.00,,,0.00,Weather View 32 v70,2013-09-24 15:55:00,
2013-09-24 12:00:00,73.8,0.0,30.06,North,0,3.0,7.0,0,0.00,,,0.00,Weather View 32 v70,2013-09-24 16:00:00,
2013-09-24 12:05:00,74.7,0.0,30.05,West,270,1.0,7.0,0,0.00,,,0.00,Weather View 32 v70,2013-09-24 16:05:00,
2013-09-24 12:10:00,73.9,0.0,30.07,WNW,293,0.0,7.0,0,0.00,,,0.00,Weather View 32 v70,2013-09-24 16:10:00,
2013-09-24 12:15:00,73.2,0.0,30.07,NNW,338,1.0,7.0,0,0.00,,,0.00,Weather View 32 v70,2013-09-24 16:15:00,
2013-09-24 12:21:00,73.2,0.0,30.06,West,270,0.0,7.0,0,0.00,,,0.00,Weather View 32 v70,2013-09-24 16:21:00,
2013-09-24 12:26:00,74.5,0.0,30.01,North,0,4.0,7.0,0,0.00,,,0.00,Weather View 32 v70,2013-09-24 16:26:00,
2013-09-24 12:31:00,75.6,0.0,30.01,West,270,3.0,8.0,0,0.00,,,0.00,Weather View 32 v70,2013-09-24 16:31:00,
2013-09-24 12:36:00,75.0,0.0,29.99,West,270,0.0,8.0,0,0.00,,,0.00,Weather View 32 v70,2013-09-24 16:36:00,
2013-09-24 12:41:00,76.3,0.0,30.04,SE,135,0.0,8.0,0,0.00,,,0.00,Weather View 32 v70,2013-09-24 16:41:00,
2013-09-24 12:46:00,75.0,0.0,30.04,North,0,3.0,8.0,0,0.00,,,0.00,Weather View 32 v70,2013-09-24 16:46:00,
2013-09-24 12:51:00,74.8,0.0,30.01,North,0,2.0,8.0,0,0.00,,,0.00,Weather View 32 v70,2013-09-24 16:51:00,
2013-09-24 12:56:00,75.2,0.0,30.01,WNW,293,2.0,8.0,0,0.00,,,0.00,Weather View 32 v70,2013-09-24 16:56:00,
2013-09-24 13:01:00,75.7,0.0,30.00,North,0,0.0,8.0,0,0.00,,,0.00,Weather View 32 v70,2013-09-24 17:01:00,
2013-09-24 13:06:00,76.5,0.0,30.04,West,270,0.0,8.0,0,0.00,,,0.00,Weather View 32 v70,2013-09-24 17:06:00,
2013-09-24 13:11:00,74.8,0.0,30.01,West,270,0.0,8.0,0,0.00,,,0.00,Weather View 32 v70,2013-09-24 17:11:00,
2013-09-24 13:16:00,73.8,0.0,30.03,NW,315,0.0,8.0,0,0.00,,,0.00,Weather View 32 v70,2013-09-24 17:16:00,
2013-09-24 13:21:00,73.4,0.0,29.97,West,270,0.0,8.0,0,0.00,,,0.00,Weather View 32 v70,2013-09-24 17:21:00,
2013-09-24 13:26:00,73.0,0.0,30.04,NNE,23,1.0,8.0,0,0.00,,,0.00,Weather View 32 v70,2013-09-24 17:26:00,
2013-09-24 13:31:00,74.7,0.0,30.03,WNW,293,0.0,8.0,0,0.00,,,0.00,Weather View 32 v70,2013-09-24 17:31:00,
2013-09-24 13:36:00,73.8,0.0,30.04,WNW,293,0.0,6.0,0,0.00,,,0.00,Weather View 32 v70,2013-09-24 17:36:00,
2013-09-24 13:41:00,72.9,0.0,29.98,West,270,0.0,6.0,0,0.00,,,0.00,Weather View 32 v70,2013-09-24 17:41:00,
2013-09-24 13:46:00,73.6,0.0,30.02,West,270,0.0,6.0,0,0.00,,,0.00,Weather View 32 v70,2013-09-24 17:46:00,
2013-09-24 13:51:00,76.1,0.0,30.00,NW,315,1.0,6.0,0,0.00,,,0.00,Weather View 32 v70,2013-09-24 17:51:00,
2013-09-24 13:56:00,77.4,0.0,29.99,WNW,293,0.0,6.0,0,0.00,,,0.00,Weather View 32 v70,2013-09-24 17:56:00,
2013-09-24 14:01:00,76.5,0.0,30.01,West,270,0.0,6.0,0,0.00,,,0.00,Weather View 32 v70,2013-09-24 18:01:00,
2013-09-24 14:06:00,74.8,0.0,30.01,NW,315,1.0,6.0,0,0.00,,,0.00,Weather View 32 v70,2013-09-24 18:06:00,
2013-09-24 14:11:00,74.1,0.0,30.01,NNE,23,0.0,6.0,0,0.00,,,0.00,Weather View 32 v70,2013-09-24 18:11:00,
2013-09-24 14:16:00,72.9,0.0,30.01,WNW,293,0.0,6.0,0,0.00,,,0.00,Weather View 32 v70,2013-09-24 18:16:00,
2013-09-24 14:21:00,72.3,0.0,30.01,WNW,293,0.0,6.0,0,0.00,,,0.00,Weather View 32 v70,2013-09-24 18:21:00,
2013-09-24 14:26:00,72.3,0.0,30.01,North,0,0.0,6.0,0,0.00,,,0.00,Weather View 32 v70,2013-09-24 18:26:00,
2013-09-24 14:31:00,72.9,0.0,29.99,West,270,0.0,6.0,0,0.00,,,0.00,Weather View 32 v70,2013-09-24 18:31:00,
2013-09-24 14:36:00,72.0,0.0,30.02,WNW,293,0.0,6.0,0,0.00,,,0.00,Weather View 32 v70,2013-09-24 18:36:00,
2013-09-24 14:41:00,72.3,0.0,30.02,WNW,293,0.0,6.0,0,0.00,,,0.00,Weather View 32 v70,2013-09-24 18:41:00,
2013-09-24 14:46:00,73.6,0.0,29.94,North,0,1.0,6.0,0,0.00,,,0.00,Weather View 32 v70,2013-09-24 18:46:00,
2013-09-24 14:51:00,76.1,0.0,29.93,North,0,1.0,6.0,0,0.00,,,0.00,Weather View 32 v70,2013-09-24 18:51:00,
2013-09-24 14:56:00,77.4,0.0,29.98,West,270,0.0,6.0,0,0.00,,,0.00,Weather View 32 v70,2013-09-24 18:56:00,
2013-09-24 15:01:00,77.7,0.0,29.93,North,0,4.0,7.0,0,0.00,,,0.00,Weather View 32 v70,2013-09-24 19:01:00,
2013-09-24 15:06:00,79.0,0.0,29.94,West,270,0.0,7.0,0,0.00,,,0.00,Weather View 32 v70,2013-09-24 19:06:00,
2013-09-24 15:11:00,78.1,0.0,29.99,North,0,2.0,7.0,0,0.00,,,0.00,Weather View 32 v70,2013-09-24 19:11:00,
2013-09-24 15:16:00,79.0,0.0,29.91,North,0,5.0,7.0,0,0.00,,,0.00,Weather View 32 v70,2013-09-24 19:16:00,
2013-09-24 15:21:00,77.2,0.0,29.97,WNW,293,1.0,8.0,0,0.00,,,0.00,Weather View 32 v70,2013-09-24 19:21:00,
2013-09-24 15:26:00,77.0,0.0,29.99,WNW,293,0.0,8.0,0,0.00,,,0.00,Weather View 32 v70,2013-09-24 19:26:00,
2013-09-24 15:31:00,77.2,0.0,29.91,North,0,2.0,8.0,0,0.00,,,0.00,Weather View 32 v70,2013-09-24 19:31:00,
2013-09-24 15:36:00,76.3,0.0,29.99,North,0,2.0,8.0,0,0.00,,,0.00,Weather View 32 v70,2013-09-24 19:36:00,
2013-09-24 15:41:00,75.9,0.0,29.92,West,270,0.0,8.0,0,0.00,,,0.00,Weather View 32 v70,2013-09-24 19:41:00,
2013-09-24 15:46:00,74.8,0.0,29.92,West,270,0.0,8.0,0,0.00,,,0.00,Weather View 32 v70,2013-09-24 19:46:00,
2013-09-24 15:51:00,73.9,0.0,29.94,WNW,293,0.0,8.0,0,0.00,,,0.00,Weather View 32 v70,2013-09-24 19:51:00,
2013-09-24 15:56:00,75.2,0.0,29.93,West,270,0.0,8.0,0,0.00,,,0.00,Weather View 32 v70,2013-09-24 19:56:00,
2013-09-24 16:01:00,75.6,0.0,29.99,NNE,23,4.0,8.0,0,0.00,,,0.00,Weather View 32 v70,2013-09-24 20:01:00,
2013-09-24 16:06:00,76.3,0.0,29.90,West,270,1.0,8.0,0,0.00,,,0.00,Weather View 32 v70,2013-09-24 20:06:00,
2013-09-24 16:11:00,77.2,0.0,29.91,WNW,293,0.0,8.0,0,0.00,,,0.00,Weather View 32 v70,2013-09-24 20:11:00,
2013-09-24 16:16:00,76.6,0.0,29.91,West,270,0.0,8.0,0,0.00,,,0.00,Weather View 32 v70,2013-09-24 20:16:00,
2013-09-24 16:21:00,75.6,0.0,29.93,WNW,293,0.0,6.0,0,0.00,,,0.00,Weather View 32 v70,2013-09-24 20:21:00,
2013-09-24 16:26:00,74.5,0.0,29.99,WNW,293,0.0,6.0,0,0.00,,,0.00,Weather View 32 v70,2013-09-24 20:26:00,
2013-09-24 16:31:00,73.4,0.0,29.99,WNW,293,0.0,6.0,0,0.00,,,0.00,Weather View 32 v70,2013-09-24 20:31:00,
2013-09-24 16:36:00,72.7,0.0,30.00,WNW,293,0.0,6.0,0,0.00,,,0.00,Weather View 32 v70,2013-09-24 20:36:00,
2013-09-24 16:41:00,71.8,0.0,29.99,WNW,293,0.0,6.0,0,0.00,,,0.00,Weather View 32 v70,2013-09-24 20:41:00,
2013-09-24 16:46:00,71.4,0.0,29.98,NW,315,0.0,8.0,0,0.00,,,0.00,Weather View 32 v70,2013-09-24 20:46:00,
2013-09-24 16:51:00,71.8,0.0,29.99,NW,315,0.0,8.0,0,0.00,,,0.00,Weather View 32 v70,2013-09-24 20:51:00,
2013-09-24 16:57:00,72.5,0.0,29.99,NW,315,0.0,8.0,0,0.00,,,0.00,Weather View 32 v70,2013-09-24 20:57:00,
2013-09-24 17:05:00,73.8,0.0,29.92,West,270,0.0,8.0,0,0.00,,,0.00,Weather View 32 v70,2013-09-24 21:05:00,
2013-09-24 17:10:00,73.9,0.0,29.95,NW,315,0.0,8.0,0,0.00,,,0.00,Weather View 32 v70,2013-09-24 21:10:00,
2013-09-24 17:15:00,73.8,0.0,29.97,NNW,338,1.0,8.0,0,0.00,,,0.00,Weather View 32 v70,2013-09-24 21:15:00,
2013-09-24 17:20:00,73.9,0.0,29.94,West,270,0.0,8.0,0,0.00,,,0.00,Weather View 32 v70,2013-09-24 21:20:00,
2013-09-24 17:25:00,73.9,0.0,29.89,West,270,0.0,8.0,0,0.00,,,0.00,Weather View 32 v70,2013-09-24 21:25:00,
2013-09-24 17:30:00,73.9,0.0,29.89,West,270,0.0,8.0,0,0.00,,,0.00,Weather View 32 v70,2013-09-24 21:30:00,
2013-09-24 17:40:00,74.1,0.0,29.94,West,270,0.0,8.0,0,0.00,,,0.00,Weather View 32 v70,2013-09-24 21:40:00,
2013-09-24 17:45:00,73.6,0.0,29.94,WNW,293,0.0,2.0,0,0.00,,,0.00,Weather View 32 v70,2013-09-24 21:45:00,
2013-09-24 17:50:00,73.6,0.0,29.87,West,270,0.0,4.0,0,0.00,,,0.00,Weather View 32 v70,2013-09-24 21:50:00,
2013-09-24 17:57:00,73.2,0.0,29.90,West,270,0.0,5.0,0,0.00,,,0.00,Weather View 32 v70,2013-09-24 21:57:00,
2013-09-24 18:05:00,71.8,0.0,29.90,West,270,0.0,5.0,0,0.00,,,0.00,Weather View 32 v70,2013-09-24 22:05:00,
2013-09-24 18:10:00,70.9,0.0,29.89,West,270,0.0,5.0,0,0.00,,,0.00,Weather View 32 v70,2013-09-24 22:10:00,
2013-09-24 18:15:00,70.0,0.0,29.89,West,270,0.0,5.0,0,0.00,,,0.00,Weather View 32 v70,2013-09-24 22:15:00,
2013-09-24 18:20:00,69.3,0.0,29.89,West,270,0.0,5.0,0,0.00,,,0.00,Weather View 32 v70,2013-09-24 22:20:00,
2013-09-24 18:25:00,68.7,0.0,29.89,West,270,0.0,5.0,0,0.00,,,0.00,Weather View 32 v70,2013-09-24 22:25:00,
2013-09-24 18:30:00,68.4,0.0,29.89,West,270,0.0,5.0,0,0.00,,,0.00,Weather View 32 v70,2013-09-24 22:30:00,
2013-09-24 18:33:00,68.0,0.0,29.89,West,270,0.0,5.0,0,0.00,,,0.00,Weather View 32 v70,2013-09-24 22:33:00,